sensor_id;sensor_type;location;lat;lon;timestamp;pressure;altitude;pressure_sealevel;temperature;humidity
58991;BME280;44781;53.444;14.476;2023-03-25T06:49:16;100048.89;;;10.22;75.96
58991;BME280;44781;53.444;14.476;2023-03-25T06:52:04;100049.42;;;10.22;75.85
58991;BME280;44781;53.444;14.476;2023-03-25T08:31:36;100068.70;;;10.79;71.23
58991;BME280;44781;53.444;14.476;2023-03-25T09:08:11;100071.88;;;11.31;69.00
58991;BME280;44781;53.444;14.476;2023-03-25T09:29:55;100079.41;;;11.61;66.27
58991;BME280;44781;53.444;14.476;2023-03-25T10:21:47;100073.48;;;11.62;63.45
58991;BME280;44781;53.444;14.476;2023-03-25T10:28:51;100062.63;;;11.74;63.31
58991;BME280;44781;53.444;14.476;2023-03-25T10:35:39;100043.14;;;11.89;62.64
58991;BME280;44781;53.444;14.476;2023-03-25T10:39:12;100041.10;;;11.92;62.55
58991;BME280;44781;53.444;14.476;2023-03-25T11:10:40;100020.94;;;12.74;59.70
58991;BME280;44781;53.444;14.476;2023-03-25T12:44:05;99989.27;;;12.31;65.80
58991;BME280;44781;53.444;14.476;2023-03-25T12:49:53;99987.96;;;12.55;65.38
58991;BME280;44781;53.444;14.476;2023-03-25T12:56:24;99977.88;;;12.90;65.36
58991;BME280;44781;53.444;14.476;2023-03-25T12:59:02;99972.66;;;13.09;64.55
58991;BME280;44781;53.444;14.476;2023-03-25T13:07:53;99978.48;;;13.38;61.21
58991;BME280;44781;53.444;14.476;2023-03-25T13:10:35;99979.60;;;13.30;59.99
58991;BME280;44781;53.444;14.476;2023-03-25T13:13:19;99976.48;;;13.22;59.44
58991;BME280;44781;53.444;14.476;2023-03-25T13:16:04;99973.36;;;13.14;59.09
58991;BME280;44781;53.444;14.476;2023-03-25T13:18:56;99972.14;;;13.09;59.20
58991;BME280;44781;53.444;14.476;2023-03-25T13:21:42;99973.19;;;13.07;59.58
58991;BME280;44781;53.444;14.476;2023-03-25T13:24:19;99982.47;;;13.07;59.85
58991;BME280;44781;53.444;14.476;2023-03-25T13:26:51;99992.84;;;13.02;59.47
58991;BME280;44781;53.444;14.476;2023-03-25T13:29:39;100002.82;;;12.90;58.81
58991;BME280;44781;53.444;14.476;2023-03-25T13:32:34;100018.84;;;12.73;58.32
58991;BME280;44781;53.444;14.476;2023-03-25T13:38:27;100010.92;;;12.23;58.98
58991;BME280;44781;53.444;14.476;2023-03-25T13:41:21;99998.11;;;12.01;59.57
58991;BME280;44781;53.444;14.476;2023-03-25T13:46:42;99994.03;;;11.74;61.59
58991;BME280;44781;53.444;14.476;2023-03-25T13:49:20;99992.36;;;11.69;62.98
58991;BME280;44781;53.444;14.476;2023-03-25T13:51:51;99991.19;;;11.67;63.31
58991;BME280;44781;53.444;14.476;2023-03-25T13:54:37;99986.21;;;11.69;63.78
58991;BME280;44781;53.444;14.476;2023-03-25T13:57:35;99983.23;;;11.74;64.22
58991;BME280;44781;53.444;14.476;2023-03-25T14:00:21;99970.79;;;11.82;63.94
58991;BME280;44781;53.444;14.476;2023-03-25T14:11:19;99960.20;;;12.21;63.26
58991;BME280;44781;53.444;14.476;2023-03-25T14:14:02;99956.70;;;12.27;62.96
58991;BME280;44781;53.444;14.476;2023-03-25T14:16:35;99954.69;;;12.35;63.29
58991;BME280;44781;53.444;14.476;2023-03-25T14:19:13;99953.63;;;12.44;63.22
58991;BME280;44781;53.444;14.476;2023-03-25T14:21:48;99955.48;;;12.52;62.92
58991;BME280;44781;53.444;14.476;2023-03-25T14:24:28;99963.70;;;12.59;62.84
58991;BME280;44781;53.444;14.476;2023-03-25T14:27:03;99969.77;;;12.64;62.18
58991;BME280;44781;53.444;14.476;2023-03-25T14:29:43;99980.53;;;12.67;61.46
58991;BME280;44781;53.444;14.476;2023-03-25T14:34:42;99993.85;;;12.55;60.43
58991;BME280;44781;53.444;14.476;2023-03-25T14:39:56;99995.60;;;12.26;60.51
58991;BME280;44781;53.444;14.476;2023-03-25T14:42:28;100028.64;;;12.06;60.81
58991;BME280;44781;53.444;14.476;2023-03-25T14:47:57;100060.44;;;11.52;60.70
58991;BME280;44781;53.444;14.476;2023-03-25T14:53:03;100078.77;;;10.99;61.84
58991;BME280;44781;53.444;14.476;2023-03-25T14:55:45;100063.05;;;10.71;62.51
58991;BME280;44781;53.444;14.476;2023-03-25T14:58:25;100065.45;;;10.43;63.36
58991;BME280;44781;53.444;14.476;2023-03-25T15:01:09;100068.76;;;10.19;64.05
58991;BME280;44781;53.444;14.476;2023-03-25T15:03:41;100061.82;;;10.01;64.79
58991;BME280;44781;53.444;14.476;2023-03-25T15:06:30;100044.89;;;9.88;65.76
58991;BME280;44781;53.444;14.476;2023-03-25T15:09:02;100008.88;;;9.82;66.32
58991;BME280;44781;53.444;14.476;2023-03-25T15:11:43;100017.83;;;9.76;66.78
58991;BME280;44781;53.444;14.476;2023-03-25T15:14:33;100022.41;;;9.72;67.44
58991;BME280;44781;53.444;14.476;2023-03-25T15:17:07;100015.02;;;9.70;67.97
58991;BME280;44781;53.444;14.476;2023-03-25T15:22:42;100009.64;;;9.64;68.74
58991;BME280;44781;53.444;14.476;2023-03-25T15:25:17;100013.77;;;9.64;68.95
58991;BME280;44781;53.444;14.476;2023-03-25T15:36:32;100020.34;;;9.76;70.94
58991;BME280;44781;53.444;14.476;2023-03-25T15:52:42;100010.66;;;10.82;71.56
58991;BME280;44781;53.444;14.476;2023-03-25T15:56:21;100004.55;;;10.94;70.74
58991;BME280;44781;53.444;14.476;2023-03-25T15:59:28;100004.64;;;10.98;70.01
58991;BME280;44781;53.444;14.476;2023-03-25T16:06:14;100002.60;;;10.99;69.30
58991;BME280;44781;53.444;14.476;2023-03-25T16:09:53;100004.02;;;10.99;69.20
58991;BME280;44781;53.444;14.476;2023-03-25T16:12:51;100005.86;;;11.00;69.26
58991;BME280;44781;53.444;14.476;2023-03-25T16:20:35;100004.50;;;11.00;69.36
58991;BME280;44781;53.444;14.476;2023-03-25T16:26:50;100003.95;;;10.90;69.64
58991;BME280;44781;53.444;14.476;2023-03-25T16:37:29;100014.66;;;10.75;69.72
58991;BME280;44781;53.444;14.476;2023-03-25T16:40:37;100010.89;;;10.74;69.87
58991;BME280;44781;53.444;14.476;2023-03-25T16:43:23;100009.27;;;10.74;69.95
58991;BME280;44781;53.444;14.476;2023-03-25T16:46:17;100015.80;;;10.74;69.66
58991;BME280;44781;53.444;14.476;2023-03-25T16:48:55;100018.56;;;10.73;69.72
58991;BME280;44781;53.444;14.476;2023-03-25T16:51:29;100024.39;;;10.73;69.60
58991;BME280;44781;53.444;14.476;2023-03-25T16:54:18;100024.34;;;10.71;69.57
58991;BME280;44781;53.444;14.476;2023-03-25T16:56:50;100022.20;;;10.68;69.69
58991;BME280;44781;53.444;14.476;2023-03-25T16:59:36;100022.14;;;10.64;69.80
58991;BME280;44781;53.444;14.476;2023-03-25T17:02:47;100020.20;;;10.60;69.84
58991;BME280;44781;53.444;14.476;2023-03-25T17:05:22;100022.14;;;10.58;69.85
58991;BME280;44781;53.444;14.476;2023-03-25T17:08:00;100020.77;;;10.56;69.64
58991;BME280;44781;53.444;14.476;2023-03-25T17:11:03;100020.11;;;10.53;69.50
58991;BME280;44781;53.444;14.476;2023-03-25T17:18:11;100014.71;;;10.44;69.32
58991;BME280;44781;53.444;14.476;2023-03-25T17:24:22;100009.56;;;10.30;69.08
58991;BME280;44781;53.444;14.476;2023-03-25T17:27:22;100006.48;;;10.24;69.03
58991;BME280;44781;53.444;14.476;2023-03-25T17:30:18;100003.00;;;10.18;68.69
58991;BME280;44781;53.444;14.476;2023-03-25T17:32:47;100002.30;;;10.12;68.69
58991;BME280;44781;53.444;14.476;2023-03-25T17:35:24;99996.08;;;10.06;68.54
58991;BME280;44781;53.444;14.476;2023-03-25T17:37:53;99995.41;;;9.99;68.49
58991;BME280;44781;53.444;14.476;2023-03-25T17:40:26;99999.96;;;9.95;68.34
58991;BME280;44781;53.444;14.476;2023-03-25T17:42:55;100003.37;;;9.91;68.43
58991;BME280;44781;53.444;14.476;2023-03-25T17:45:28;100000.98;;;9.88;68.70
58991;BME280;44781;53.444;14.476;2023-03-25T17:47:55;100004.52;;;9.86;68.83
58991;BME280;44781;53.444;14.476;2023-03-25T17:50:52;100004.71;;;9.87;68.75
58991;BME280;44781;53.444;14.476;2023-03-25T17:53:31;100006.45;;;9.87;68.80
58991;BME280;44781;53.444;14.476;2023-03-25T17:56:19;100013.19;;;9.87;68.88
58991;BME280;44781;53.444;14.476;2023-03-25T17:58:47;100016.98;;;9.86;68.98
58991;BME280;44781;53.444;14.476;2023-03-25T18:01:17;100020.77;;;9.85;69.13
58991;BME280;44781;53.444;14.476;2023-03-25T18:03:47;100022.12;;;9.84;69.28
58991;BME280;44781;53.444;14.476;2023-03-25T18:06:18;100033.34;;;9.80;69.31
58991;BME280;44781;53.444;14.476;2023-03-25T18:08:53;100048.45;;;9.75;69.36
58991;BME280;44781;53.444;14.476;2023-03-25T18:11:36;100076.02;;;9.68;69.68
58991;BME280;44781;53.444;14.476;2023-03-25T18:14:03;100083.38;;;9.62;69.77
58991;BME280;44781;53.444;14.476;2023-03-25T18:16:30;100073.03;;;9.59;70.08
58991;BME280;44781;53.444;14.476;2023-03-25T18:18:58;100067.61;;;9.57;70.41
58991;BME280;44781;53.444;14.476;2023-03-25T18:21:25;100065.55;;;9.56;70.64
58991;BME280;44781;53.444;14.476;2023-03-25T18:23:54;100057.03;;;9.55;70.73
58991;BME280;44781;53.444;14.476;2023-03-25T18:26:21;100049.42;;;9.55;70.98
58991;BME280;44781;53.444;14.476;2023-03-25T18:28:48;100041.25;;;9.56;71.20
58991;BME280;44781;53.444;14.476;2023-03-25T18:31:16;100043.37;;;9.56;71.27
58991;BME280;44781;53.444;14.476;2023-03-25T18:33:46;100052.77;;;9.55;71.39
58991;BME280;44781;53.444;14.476;2023-03-25T18:36:27;100050.60;;;9.54;71.47
58991;BME280;44781;53.444;14.476;2023-03-25T18:43:25;100046.52;;;9.50;71.76
58991;BME280;44781;53.444;14.476;2023-03-25T18:46:23;100042.58;;;9.50;72.07
58991;BME280;44781;53.444;14.476;2023-03-25T18:49:25;100036.30;;;9.52;72.35
58991;BME280;44781;53.444;14.476;2023-03-25T18:51:57;100035.88;;;9.52;72.41
58991;BME280;44781;53.444;14.476;2023-03-25T19:00:53;100033.15;;;9.47;72.67
58991;BME280;44781;53.444;14.476;2023-03-25T19:03:21;100029.67;;;9.46;72.56
58991;BME280;44781;53.444;14.476;2023-03-25T19:05:57;100022.25;;;9.46;72.69
58991;BME280;44781;53.444;14.476;2023-03-25T19:08:26;100025.98;;;9.48;72.76
58991;BME280;44781;53.444;14.476;2023-03-25T19:10:53;100020.92;;;9.50;72.76
58991;BME280;44781;53.444;14.476;2023-03-25T19:13:25;100019.77;;;9.51;72.74
58991;BME280;44781;53.444;14.476;2023-03-25T19:16:09;100015.54;;;9.49;72.79
58991;BME280;44781;53.444;14.476;2023-03-25T19:18:59;100016.44;;;9.46;72.65
58991;BME280;44781;53.444;14.476;2023-03-25T19:21:39;100012.58;;;9.44;72.27
58991;BME280;44781;53.444;14.476;2023-03-25T19:24:11;100018.90;;;9.40;72.19
58991;BME280;44781;53.444;14.476;2023-03-25T19:26:43;100016.27;;;9.36;72.22
58991;BME280;44781;53.444;14.476;2023-03-25T19:29:29;100011.80;;;9.30;71.94
58991;BME280;44781;53.444;14.476;2023-03-25T19:39:36;100004.87;;;9.20;72.13
58991;BME280;44781;53.444;14.476;2023-03-25T19:49:51;100000.98;;;9.07;71.93
58991;BME280;44781;53.444;14.476;2023-03-25T19:52:49;99994.91;;;9.02;71.79
58991;BME280;44781;53.444;14.476;2023-03-25T19:56:08;99989.98;;;8.95;71.87
58991;BME280;44781;53.444;14.476;2023-03-25T20:00:00;99983.84;;;8.88;71.98
58991;BME280;44781;53.444;14.476;2023-03-25T20:03:15;99981.90;;;8.84;72.11
58991;BME280;44781;53.444;14.476;2023-03-25T20:06:08;99980.98;;;8.82;72.13
58991;BME280;44781;53.444;14.476;2023-03-25T21:46:14;99899.86;;;9.09;75.10
58991;BME280;44781;53.444;14.476;2023-03-25T21:49:23;99907.02;;;9.14;75.08
58991;BME280;44781;53.444;14.476;2023-03-25T21:52:05;99906.23;;;9.15;75.25
58991;BME280;44781;53.444;14.476;2023-03-25T22:23:49;99894.39;;;9.39;76.49
58991;BME280;44781;53.444;14.476;2023-03-25T22:27:06;99896.14;;;9.41;76.60
58991;BME280;44781;53.444;14.476;2023-03-25T22:29:49;99893.52;;;9.40;76.60
58991;BME280;44781;53.444;14.476;2023-03-25T22:32:17;99887.77;;;9.42;76.66
58991;BME280;44781;53.444;14.476;2023-03-25T22:34:47;99890.64;;;9.44;76.60
58991;BME280;44781;53.444;14.476;2023-03-25T22:41:00;99886.95;;;9.45;76.90
58991;BME280;44781;53.444;14.476;2023-03-25T22:44:52;99882.31;;;9.46;76.97
58991;BME280;44781;53.444;14.476;2023-03-25T22:47:22;99881.40;;;9.46;76.94
58991;BME280;44781;53.444;14.476;2023-03-25T22:50:06;99882.04;;;9.45;76.95
58991;BME280;44781;53.444;14.476;2023-03-25T22:52:58;99883.36;;;9.44;76.95
58991;BME280;44781;53.444;14.476;2023-03-25T22:55:31;99886.03;;;9.43;77.08
58991;BME280;44781;53.444;14.476;2023-03-25T23:01:34;99886.52;;;9.42;77.07
58991;BME280;44781;53.444;14.476;2023-03-25T23:07:55;99883.56;;;9.39;77.26
58991;BME280;44781;53.444;14.476;2023-03-25T23:11:13;99883.52;;;9.38;77.16
58991;BME280;44781;53.444;14.476;2023-03-25T23:18:05;99882.36;;;9.33;77.23
58991;BME280;44781;53.444;14.476;2023-03-25T23:20:32;99881.91;;;9.32;77.13
58991;BME280;44781;53.444;14.476;2023-03-25T23:23:02;99885.86;;;9.33;77.13
58991;BME280;44781;53.444;14.476;2023-03-25T23:25:32;99886.17;;;9.34;77.26
58991;BME280;44781;53.444;14.476;2023-03-25T23:27:59;99884.59;;;9.36;77.36
58991;BME280;44781;53.444;14.476;2023-03-25T23:30:27;99882.98;;;9.36;77.09
58991;BME280;44781;53.444;14.476;2023-03-25T23:32:57;99884.35;;;9.36;77.12
58991;BME280;44781;53.444;14.476;2023-03-25T23:35:25;99881.00;;;9.35;77.02
58991;BME280;44781;53.444;14.476;2023-03-25T23:37:52;99882.34;;;9.33;77.06
58991;BME280;44781;53.444;14.476;2023-03-25T23:40:22;99875.70;;;9.33;76.92
58991;BME280;44781;53.444;14.476;2023-03-25T23:43:10;99875.64;;;9.33;77.09
58991;BME280;44781;53.444;14.476;2023-03-25T23:45:41;99876.94;;;9.35;77.18
58991;BME280;44781;53.444;14.476;2023-03-25T23:48:09;99879.30;;;9.36;77.12
58991;BME280;44781;53.444;14.476;2023-03-25T23:50:40;99870.06;;;9.33;76.92
58991;BME280;44781;53.444;14.476;2023-03-25T23:53:07;99874.13;;;9.34;76.95
58991;BME280;44781;53.444;14.476;2023-03-25T23:55:34;99875.66;;;9.35;76.85
58991;BME280;44781;53.444;14.476;2023-03-25T23:58:14;99878.55;;;9.34;76.79
